createdAt,value
2019-01-02T00:02:32.157Z,16.60
2019-01-02T00:05:20.238Z,19.87
2019-01-02T00:08:08.318Z,21.13
2019-01-02T00:10:58.140Z,19.57
2019-01-02T00:13:47.906Z,17.47
2019-01-02T00:16:35.973Z,17.97
2019-01-02T00:19:24.077Z,19.67
2019-01-02T00:25:20.997Z,20.20
2019-01-02T00:28:10.762Z,22.33
2019-01-02T00:30:58.851Z,28.40
2019-01-02T00:36:54.057Z,17.80
2019-01-02T00:39:44.318Z,17.93
2019-01-02T00:42:32.354Z,15.33
2019-01-02T00:51:08.105Z,14.97
2019-01-02T00:53:56.148Z,16.67
2019-01-02T00:59:37.558Z,15.80
2019-01-02T01:02:25.639Z,14.57
2019-01-02T01:05:13.717Z,26.13
2019-01-02T01:08:03.414Z,15.50
2019-01-02T01:10:51.493Z,15.73
2019-01-02T01:13:39.859Z,14.40
2019-01-02T01:16:27.929Z,13.77
2019-01-02T01:19:17.655Z,17.07
2019-01-02T01:22:05.746Z,14.03
2019-01-02T01:24:53.781Z,14.03
2019-01-02T01:27:41.861Z,15.17
2019-01-02T01:30:31.618Z,15.17
2019-01-02T01:33:21.703Z,13.57
2019-01-02T01:36:09.813Z,14.60
2019-01-02T01:38:58.468Z,13.30
2019-01-02T01:41:46.562Z,12.07
2019-01-02T01:47:41.776Z,13.80
2019-01-02T01:50:31.534Z,12.67
2019-01-02T01:53:19.685Z,14.80
2019-01-02T01:56:07.947Z,13.17
2019-01-02T01:58:56.035Z,13.20
2019-01-02T02:01:44.121Z,13.30
2019-01-02T02:07:39.313Z,14.07
2019-01-02T02:10:12.407Z,17.47
2019-01-02T02:13:00.664Z,34.43
2019-01-02T02:15:48.698Z,14.40
2019-01-02T02:18:36.637Z,15.00
2019-01-02T02:24:31.879Z,15.23
2019-01-02T02:27:21.657Z,15.87
2019-01-02T02:29:50.712Z,19.50
2019-01-02T02:32:38.754Z,15.90
2019-01-02T02:35:28.856Z,20.50
2019-01-02T02:38:18.974Z,15.80
2019-01-02T02:41:08.833Z,23.53
2019-01-02T02:43:58.532Z,15.50
2019-01-02T02:46:48.366Z,14.40
2019-01-02T02:52:43.468Z,14.90
2019-01-02T02:55:14.953Z,22.00
2019-01-02T02:58:03.049Z,17.37
2019-01-02T03:00:51.090Z,14.77
2019-01-02T03:03:40.769Z,16.80
2019-01-02T03:06:29.018Z,14.37
2019-01-02T03:09:19.032Z,17.00
2019-01-02T03:15:01.074Z,15.27
2019-01-02T03:17:49.168Z,19.20
2019-01-02T03:20:37.180Z,22.73
2019-01-02T03:23:25.266Z,17.13
2019-01-02T03:26:13.321Z,18.20
2019-01-02T03:29:01.397Z,24.03
2019-01-02T03:34:58.307Z,14.47
2019-01-02T03:37:46.346Z,18.27
2019-01-02T03:40:34.422Z,15.63
2019-01-02T03:43:22.317Z,15.60
2019-01-02T03:46:10.410Z,18.00
2019-01-02T03:48:58.644Z,15.10
2019-01-02T03:51:46.717Z,12.67
2019-01-02T03:54:34.728Z,13.73
2019-01-02T03:57:22.794Z,14.80
2019-01-02T04:03:17.988Z,12.83
2019-01-02T04:06:06.037Z,17.10
2019-01-02T04:08:54.110Z,13.80
2019-01-02T04:11:42.185Z,15.63
2019-01-02T04:14:30.596Z,12.73
2019-01-02T04:17:18.673Z,13.53
2019-01-02T04:20:06.731Z,13.63
2019-01-02T04:22:54.810Z,12.23
2019-01-02T04:25:23.840Z,12.40
2019-01-02T04:28:15.183Z,11.57
2019-01-02T04:34:10.362Z,12.63
2019-01-02T04:36:58.510Z,12.20
2019-01-02T04:39:46.368Z,12.50
2019-01-02T04:42:34.314Z,11.23
2019-01-02T04:45:22.406Z,14.23
2019-01-02T04:48:10.431Z,9.93
2019-01-02T04:51:17.581Z,12.60
2019-01-02T04:57:12.740Z,10.27
2019-01-02T05:00:00.815Z,10.60
2019-01-02T05:05:55.918Z,9.00
2019-01-02T05:08:43.946Z,8.93
2019-01-02T05:11:32.018Z,9.63
2019-01-02T05:17:27.190Z,10.00
2019-01-02T05:20:15.571Z,9.80
2019-01-02T05:23:03.880Z,16.20
2019-01-02T05:25:51.908Z,9.10
2019-01-02T05:31:33.530Z,9.63
2019-01-02T05:34:21.925Z,10.30
2019-01-02T05:37:09.988Z,10.50
2019-01-02T05:39:58.056Z,10.87
2019-01-02T05:42:46.122Z,9.97
2019-01-02T05:45:34.084Z,12.73
2019-01-02T05:48:22.154Z,9.60
2019-01-02T05:51:10.181Z,9.73
2019-01-02T05:53:58.256Z,11.00
2019-01-02T05:59:53.472Z,11.17
2019-01-02T06:02:41.558Z,10.07
2019-01-02T06:05:29.624Z,9.40
2019-01-02T06:08:18.076Z,10.50
2019-01-02T06:11:06.155Z,10.00
2019-01-02T06:13:54.179Z,9.80
2019-01-02T06:16:42.882Z,10.60
2019-01-02T06:19:30.956Z,10.20
2019-01-02T06:22:18.847Z,9.83
2019-01-02T06:25:06.951Z,9.90
2019-01-02T06:27:55.023Z,10.17
2019-01-02T06:30:43.098Z,10.77
2019-01-02T06:33:30.982Z,9.90
2019-01-02T06:36:19.065Z,11.73
2019-01-02T06:39:07.138Z,11.40
2019-01-02T06:41:55.038Z,9.97
2019-01-02T06:44:43.072Z,14.60
2019-01-02T06:47:31.144Z,9.97
2019-01-02T06:50:39.596Z,10.43
2019-01-02T06:53:27.646Z,9.63
2019-01-02T06:56:15.682Z,9.10
2019-01-02T06:59:04.077Z,10.00
2019-01-02T07:01:52.174Z,9.23
2019-01-02T07:10:41.458Z,9.77
2019-01-02T07:13:29.492Z,10.50
2019-01-02T07:16:17.555Z,9.30
2019-01-02T07:19:05.584Z,10.30
2019-01-02T07:24:47.280Z,12.43
2019-01-02T07:27:35.360Z,10.60
2019-01-02T07:30:05.524Z,10.87
2019-01-02T07:32:53.598Z,10.73
2019-01-02T07:36:00.869Z,10.40
2019-01-02T07:39:10.977Z,9.80
2019-01-02T07:42:18.183Z,10.33
2019-01-02T07:45:25.310Z,9.93
2019-01-02T07:48:32.492Z,9.60
2019-01-02T07:51:39.634Z,11.20
2019-01-02T07:54:46.867Z,9.47
2019-01-02T07:57:53.993Z,9.90
2019-01-02T08:01:01.174Z,9.77
2019-01-02T08:04:08.379Z,9.60
2019-01-02T08:07:15.558Z,9.30
2019-01-02T08:10:22.691Z,9.50
2019-01-02T08:13:34.902Z,10.80
2019-01-02T08:16:42.047Z,13.03
2019-01-02T08:22:49.573Z,10.20
2019-01-02T08:25:56.757Z,12.90
2019-01-02T08:29:03.917Z,9.70
2019-01-02T08:32:11.105Z,10.33
2019-01-02T08:35:18.246Z,11.70
2019-01-02T08:38:25.458Z,10.07
2019-01-02T08:41:32.655Z,9.87
2019-01-02T08:44:39.822Z,9.93
2019-01-02T08:47:47.003Z,10.53
2019-01-02T08:50:58.472Z,9.90
2019-01-02T08:54:05.640Z,12.93
2019-01-02T08:57:12.815Z,9.80
2019-01-02T09:00:20.003Z,10.63
2019-01-02T09:03:27.137Z,10.20
2019-01-02T09:06:34.316Z,11.60
2019-01-02T09:09:41.553Z,10.50
2019-01-02T09:16:11.190Z,11.20
2019-01-02T09:19:26.525Z,11.43
2019-01-02T09:22:43.681Z,10.00
2019-01-02T09:25:50.949Z,9.60
2019-01-02T09:29:03.346Z,10.60
2019-01-02T09:32:10.534Z,10.43
2019-01-02T09:35:17.711Z,10.03
2019-01-02T09:38:12.365Z,10.00
2019-01-02T09:41:19.563Z,9.30
2019-01-02T09:44:26.762Z,10.03
2019-01-02T09:47:33.895Z,9.90
2019-01-02T09:50:41.079Z,9.63
2019-01-02T09:53:55.114Z,9.50
2019-01-02T09:56:50.568Z,10.87
2019-01-02T09:59:45.285Z,10.60
2019-01-02T10:03:03.511Z,9.73
2019-01-02T10:06:10.671Z,9.60
2019-01-02T10:09:17.864Z,11.10
2019-01-02T10:12:13.266Z,9.47
2019-01-02T10:15:20.411Z,9.20
2019-01-02T10:18:27.590Z,10.37
2019-01-02T10:21:34.759Z,9.17
2019-01-02T10:24:41.959Z,9.00
2019-01-02T10:27:49.137Z,8.80
2019-01-02T10:30:42.245Z,9.77
2019-01-02T10:33:35.461Z,8.97
2019-01-02T10:36:42.643Z,8.63
2019-01-02T10:39:49.777Z,8.33
2019-01-02T10:42:56.985Z,11.10
2019-01-02T10:46:04.123Z,8.30
2019-01-02T10:49:01.187Z,8.97
2019-01-02T10:52:08.327Z,8.90
2019-01-02T10:55:03.013Z,8.47
2019-01-02T10:58:10.241Z,8.40
2019-01-02T11:01:17.454Z,9.33
2019-01-02T11:04:24.586Z,10.10
2019-01-02T11:07:31.854Z,9.43
2019-01-02T11:10:39.056Z,7.90
2019-01-02T11:13:46.249Z,8.60
2019-01-02T11:16:53.489Z,9.07
2019-01-02T11:20:00.767Z,7.60
2019-01-02T11:22:56.494Z,8.40
2019-01-02T11:26:14.359Z,7.93
2019-01-02T11:29:26.107Z,8.50
2019-01-02T11:32:33.424Z,9.00
2019-01-02T11:38:47.739Z,9.60
2019-01-02T11:42:09.125Z,8.60
2019-01-02T11:45:16.257Z,8.10
2019-01-02T11:48:04.379Z,8.33
2019-01-02T11:50:33.419Z,8.80
2019-01-02T11:53:21.525Z,7.70
2019-01-02T11:56:09.594Z,8.10
2019-01-02T11:58:57.666Z,7.87
2019-01-02T12:01:45.812Z,8.10
2019-01-02T12:07:27.327Z,7.87
2019-01-02T12:09:56.389Z,7.23
2019-01-02T12:12:44.423Z,8.43
2019-01-02T12:15:13.535Z,7.13
2019-01-02T12:18:01.644Z,8.27
2019-01-02T12:20:49.759Z,9.10
2019-01-02T12:23:37.795Z,7.40
2019-01-02T12:26:25.731Z,8.20
2019-01-02T12:29:13.774Z,7.80
2019-01-02T12:34:55.747Z,8.07
2019-01-02T12:37:43.837Z,8.07
2019-01-02T12:40:31.972Z,7.90
2019-01-02T12:46:27.478Z,8.90
2019-01-02T12:52:22.710Z,7.80
2019-01-02T12:55:10.674Z,8.00
2019-01-02T12:57:58.746Z,8.17
2019-01-02T13:01:07.860Z,8.33
2019-01-02T13:04:15.038Z,8.57
2019-01-02T13:07:22.203Z,8.10
2019-01-02T13:10:29.399Z,8.40
2019-01-02T13:13:36.539Z,7.73
2019-01-02T13:16:36.785Z,9.17
2019-01-02T13:19:43.915Z,8.13
2019-01-02T13:22:51.092Z,7.40
2019-01-02T13:26:01.182Z,8.40
2019-01-02T13:29:08.368Z,7.80
2019-01-02T13:32:15.498Z,8.30
2019-01-02T13:35:22.677Z,8.77
2019-01-02T13:38:29.815Z,7.70
2019-01-02T13:41:36.997Z,7.47
2019-01-02T13:47:55.950Z,8.00
2019-01-02T13:51:03.752Z,8.20
2019-01-02T13:53:52.205Z,8.73
2019-01-02T13:56:41.515Z,8.93
2019-01-02T13:59:29.579Z,7.97
2019-01-02T14:02:38.043Z,8.23
2019-01-02T14:05:28.967Z,8.53
2019-01-02T14:16:37.185Z,9.87
2019-01-02T14:19:25.323Z,9.13
2019-01-02T14:22:14.460Z,9.17
2019-01-02T14:27:55.728Z,9.00
2019-01-02T14:33:18.646Z,10.53
2019-01-02T14:36:06.608Z,11.17
2019-01-02T14:38:54.711Z,9.53
2019-01-02T14:41:42.784Z,13.17
2019-01-02T14:44:30.939Z,11.27
2019-01-02T14:46:59.971Z,14.90
2019-01-02T14:49:48.047Z,10.00
2019-01-02T14:52:36.092Z,12.90
2019-01-02T14:55:24.134Z,13.23
2019-01-02T14:58:12.174Z,10.50
2019-01-02T15:01:00.508Z,12.23
2019-01-02T15:03:48.554Z,12.37
2019-01-02T15:06:36.679Z,9.43
2019-01-02T15:09:08.122Z,11.77
2019-01-02T15:11:56.212Z,11.40
2019-01-02T15:14:44.281Z,10.30
2019-01-02T15:17:32.376Z,9.93
2019-01-02T15:20:40.895Z,10.27
2019-01-02T15:23:28.798Z,11.63
2019-01-02T15:26:16.876Z,10.23
2019-01-02T15:29:04.767Z,11.20
2019-01-02T15:31:52.690Z,9.90
2019-01-02T15:34:40.720Z,10.40
2019-01-02T15:37:28.664Z,10.60
2019-01-02T15:40:16.555Z,10.57
2019-01-02T15:43:04.535Z,10.70
2019-01-02T15:45:52.489Z,11.00
2019-01-02T15:48:40.536Z,13.00
2019-01-02T15:51:28.606Z,13.13
2019-01-02T15:54:16.500Z,12.33
2019-01-02T15:57:04.588Z,11.03
2019-01-02T15:59:53.095Z,12.67
2019-01-02T16:02:41.120Z,12.80
2019-01-02T16:05:29.148Z,13.37
2019-01-02T16:08:17.052Z,12.03
2019-01-02T16:11:05.230Z,12.63
2019-01-02T16:13:53.125Z,11.90
2019-01-02T16:16:42.386Z,12.27
2019-01-02T16:19:30.851Z,13.93
2019-01-02T16:22:18.936Z,14.67
2019-01-02T16:24:47.877Z,13.50
2019-01-02T16:27:35.952Z,13.40
2019-01-02T16:30:44.419Z,11.63
2019-01-02T16:33:32.484Z,11.50
2019-01-02T16:36:20.546Z,13.80
2019-01-02T16:39:09.000Z,15.07
2019-01-02T16:41:56.967Z,15.07
2019-01-02T16:44:45.050Z,14.93
2019-01-02T16:47:33.091Z,13.50
2019-01-02T16:50:21.181Z,13.70
2019-01-02T16:53:09.219Z,14.20
2019-01-02T16:55:57.303Z,13.50
2019-01-02T16:58:45.336Z,13.30
2019-01-02T17:01:33.397Z,18.50
2019-01-02T17:07:28.886Z,14.13
2019-01-02T17:10:16.969Z,14.73
2019-01-02T17:13:05.072Z,14.03
2019-01-02T17:15:53.185Z,11.73
2019-01-02T17:18:55.201Z,11.40
2019-01-02T17:21:31.019Z,11.00
2019-01-02T17:24:19.159Z,10.77
2019-01-02T17:27:07.335Z,11.17
2019-01-02T17:30:15.959Z,12.07
2019-01-02T17:33:04.021Z,12.10
2019-01-02T17:35:52.367Z,15.00
2019-01-02T17:38:40.390Z,14.23
2019-01-02T17:41:28.539Z,14.03
2019-01-02T17:44:16.620Z,14.60
2019-01-02T17:47:04.714Z,18.93
2019-01-02T17:49:52.790Z,14.13
2019-01-02T17:52:40.821Z,28.27
2019-01-02T17:55:29.005Z,15.67
2019-01-02T17:58:17.165Z,13.10
2019-01-02T18:01:05.282Z,13.00
2019-01-02T18:07:00.489Z,12.90
2019-01-02T18:09:29.469Z,12.87
2019-01-02T18:12:17.581Z,13.37
2019-01-02T18:15:05.645Z,13.53
2019-01-02T18:17:53.761Z,14.20
2019-01-02T18:20:41.853Z,31.33
2019-01-02T18:23:10.995Z,13.50
2019-01-02T18:25:59.113Z,13.63
2019-01-02T18:28:47.271Z,14.10
2019-01-02T18:34:42.426Z,12.80
2019-01-02T18:37:30.507Z,13.40
2019-01-02T18:43:12.245Z,13.00
2019-01-02T18:46:00.316Z,12.63
2019-01-02T18:48:48.377Z,13.23
2019-01-02T18:51:36.440Z,13.60
2019-01-02T18:54:24.575Z,13.37
2019-01-02T18:57:12.706Z,14.13
2019-01-02T19:00:06.011Z,12.60
2019-01-02T19:02:50.617Z,13.40
2019-01-02T19:05:38.807Z,14.10
2019-01-02T19:11:34.038Z,13.67
2019-01-02T19:17:29.218Z,14.30
2019-01-02T19:20:17.321Z,15.90
2019-01-02T19:23:05.353Z,14.97
2019-01-02T19:25:53.442Z,15.03
2019-01-02T19:28:41.521Z,15.23
2019-01-02T19:31:29.605Z,15.37
2019-01-02T19:34:17.668Z,14.23
2019-01-02T19:37:05.753Z,15.30
2019-01-02T19:39:53.813Z,14.73
2019-01-02T19:42:41.894Z,15.10
2019-01-02T19:45:29.862Z,13.97
2019-01-02T19:48:17.968Z,13.73
2019-01-02T19:51:06.018Z,15.30
2019-01-02T19:53:54.119Z,15.03
2019-01-02T19:56:42.211Z,14.40
2019-01-02T19:59:30.258Z,13.73
2019-01-02T20:02:18.360Z,13.27
2019-01-02T20:05:06.409Z,13.10
2019-01-02T20:07:54.504Z,15.40
2019-01-02T20:13:54.178Z,15.03
2019-01-02T20:16:42.180Z,16.17
2019-01-02T20:19:30.266Z,15.60
2019-01-02T20:22:18.678Z,18.20
2019-01-02T20:25:06.753Z,17.87
2019-01-02T20:27:54.717Z,15.87
2019-01-02T20:30:42.730Z,17.23
2019-01-02T20:33:11.714Z,14.20
2019-01-02T20:35:59.804Z,14.47
2019-01-02T20:41:55.347Z,15.00
2019-01-02T20:44:43.497Z,13.30
2019-01-02T20:47:31.589Z,14.17
2019-01-02T20:50:19.661Z,13.30
2019-01-02T20:53:07.734Z,13.03
2019-01-02T20:55:55.814Z,13.43
2019-01-02T20:58:43.850Z,13.23
2019-01-02T21:01:31.923Z,12.93
2019-01-02T21:10:07.288Z,12.60
2019-01-02T21:12:55.367Z,14.83
2019-01-02T21:15:43.412Z,13.97
2019-01-02T21:18:38.773Z,14.00
2019-01-02T21:24:33.983Z,12.20
2019-01-02T21:27:22.068Z,13.10
2019-01-02T21:30:10.006Z,13.20
2019-01-02T21:32:58.374Z,13.30
2019-01-02T21:38:39.895Z,14.30
2019-01-02T21:41:27.985Z,13.83
2019-01-02T21:44:16.025Z,12.97
2019-01-02T21:47:04.120Z,14.60
2019-01-02T21:49:52.193Z,13.40
2019-01-02T21:52:40.278Z,15.23
2019-01-02T21:55:28.319Z,14.33
2019-01-02T21:58:16.330Z,14.10
2019-01-02T22:03:58.193Z,13.00
2019-01-02T22:06:46.304Z,12.60
2019-01-02T22:09:34.351Z,13.50
2019-01-02T22:12:22.434Z,13.00
2019-01-02T22:15:10.478Z,13.20
2019-01-02T22:17:58.573Z,13.60
2019-01-02T22:20:46.621Z,13.43
2019-01-02T22:23:34.598Z,13.90
2019-01-02T22:26:22.617Z,14.40
2019-01-02T22:29:10.719Z,14.17
2019-01-02T22:31:58.705Z,13.60
2019-01-02T22:34:46.724Z,15.30
2019-01-02T22:37:34.794Z,14.50
2019-01-02T22:40:22.904Z,14.87
2019-01-02T22:42:51.849Z,15.97
2019-01-02T22:45:39.966Z,15.23
2019-01-02T22:48:28.012Z,15.17
2019-01-02T22:51:16.102Z,14.13
2019-01-02T22:54:03.998Z,14.80
2019-01-02T22:56:51.960Z,14.33
2019-01-02T22:59:40.016Z,14.53
2019-01-02T23:02:14.966Z,14.70
2019-01-02T23:05:22.022Z,13.90
2019-01-02T23:08:24.579Z,13.83
2019-01-02T23:11:31.986Z,14.00
2019-01-02T23:14:39.030Z,15.00
2019-01-02T23:17:46.094Z,15.57
2019-01-02T23:20:53.091Z,13.87
2019-01-02T23:24:00.149Z,13.47
2019-01-02T23:27:07.155Z,13.37
2019-01-02T23:30:14.194Z,15.13
2019-01-02T23:33:02.108Z,13.97
2019-01-02T23:35:50.138Z,14.67
2019-01-02T23:38:38.126Z,14.40
2019-01-02T23:41:45.198Z,14.37
2019-01-02T23:44:29.343Z,13.90
2019-01-02T23:47:17.290Z,14.20
2019-01-02T23:50:24.338Z,13.63
2019-01-02T23:53:31.382Z,14.73
2019-01-02T23:56:19.374Z,13.80
2019-01-02T23:59:26.423Z,14.57
